Time;durP1;ratioP1;P1;durP2;ratioP2;P2;SDS_P1;SDS_P2;PMS_P1;PMS_P2;Temp;Humidity;BMP_temperature;BMP_pressure;BME280_temperature;BME280_humidity;BME280_pressure;Samples;Min_cycle;Max_cycle;Signal;HPM_P1;HPM_P2
2021/04/19 00:01:10;;;;;;;26.43;13.90;;;;;;;;;;4361446;32;20177;-69
2021/04/19 00:03:35;;;;;;;30.30;13.23;;;;;;;;;;4360996;32;20135;-69
2021/04/19 00:06:00;;;;;;;22.73;13.40;;;;;;;;;;4361654;32;20155;-69
2021/04/19 00:08:26;;;;;;;22.40;12.77;;;;;;;;;;4361354;32;22074;-69
2021/04/19 00:10:51;;;;;;;27.47;14.03;;;;;;;;;;4361790;32;20140;-69
2021/04/19 00:13:16;;;;;;;25.93;13.67;;;;;;;;;;4361691;32;20138;-69
2021/04/19 00:15:42;;;;;;;25.00;13.80;;;;;;;;;;4361073;32;20151;-69
2021/04/19 00:18:07;;;;;;;27.03;14.23;;;;;;;;;;4362006;32;20167;-69
2021/04/19 00:20:32;;;;;;;24.43;13.63;;;;;;;;;;4357511;32;20498;-69
2021/04/19 00:22:58;;;;;;;25.63;13.70;;;;;;;;;;4358123;32;20153;-69
2021/04/19 00:25:23;;;;;;;27.10;14.20;;;;;;;;;;4361530;32;20453;-69
2021/04/19 00:27:49;;;;;;;28.40;15.40;;;;;;;;;;4350970;32;20643;-69
2021/04/19 00:30:14;;;;;;;30.13;14.63;;;;;;;;;;4347132;32;20144;-69
2021/04/19 00:32:40;;;;;;;28.80;15.17;;;;;;;;;;4361079;32;20182;-69
2021/04/19 00:35:06;;;;;;;26.80;15.80;;;;;;;;;;4361286;32;20190;-69
2021/04/19 00:37:31;;;;;;;29.43;16.83;;;;;;;;;;4361193;32;20159;-69
2021/04/19 00:39:56;;;;;;;30.67;16.33;;;;;;;;;;4361260;32;20173;-69
2021/04/19 00:42:22;;;;;;;28.10;15.83;;;;;;;;;;4361163;32;20140;-70
2021/04/19 00:44:47;;;;;;;31.20;16.23;;;;;;;;;;4360561;32;20495;-69
2021/04/19 00:47:12;;;;;;;32.60;16.33;;;;;;;;;;4360848;32;20518;-69
2021/04/19 00:49:38;;;;;;;27.03;14.83;;;;;;;;;;4361046;32;20155;-69
2021/04/19 00:52:04;;;;;;;28.97;16.00;;;;;;;;;;4360906;32;20189;-69
2021/04/19 00:54:30;;;;;;;30.13;16.50;;;;;;;;;;4360828;32;20139;-69
2021/04/19 00:56:55;;;;;;;32.00;16.03;;;;;;;;;;4360785;32;20258;-70
2021/04/19 00:59:20;;;;;;;30.53;16.77;;;;;;;;;;4360767;32;20147;-70
2021/04/19 01:01:46;;;;;;;33.70;17.67;;;;;;;;;;4359448;32;20268;-69
2021/04/19 01:04:11;;;;;;;29.50;16.70;;;;;;;;;;4360509;32;20147;-69
2021/04/19 01:06:37;;;;;;;33.13;17.33;;;;;;;;;;4361104;32;20201;-69
2021/04/19 01:09:06;;;;;;;37.83;18.77;;;;;;;;;;4361726;32;20147;-69
2021/04/19 01:11:31;;;;;;;37.13;18.37;;;;;;;;;;4361689;32;20155;-69
2021/04/19 01:13:56;;;;;;;34.57;17.97;;;;;;;;;;4360758;32;20178;-69
2021/04/19 01:16:22;;;;;;;33.20;18.80;;;;;;;;;;4361362;32;20151;-69
2021/04/19 01:18:47;;;;;;;38.97;19.87;;;;;;;;;;4360972;32;20143;-69
2021/04/19 01:21:12;;;;;;;38.10;19.03;;;;;;;;;;4360167;32;20146;-69
2021/04/19 01:23:37;;;;;;;37.27;19.33;;;;;;;;;;4359145;33;20193;-69
2021/04/19 01:26:03;;;;;;;35.70;18.53;;;;;;;;;;4361676;32;20139;-69
2021/04/19 01:28:29;;;;;;;37.63;20.20;;;;;;;;;;4357189;32;20187;-69
2021/04/19 01:30:54;;;;;;;41.80;22.20;;;;;;;;;;4360528;32;20185;-69
2021/04/19 01:33:19;;;;;;;44.40;21.60;;;;;;;;;;4360654;32;20164;-69
2021/04/19 01:35:45;;;;;;;39.33;21.67;;;;;;;;;;4360459;32;20131;-69
2021/04/19 01:38:11;;;;;;;42.00;23.13;;;;;;;;;;4360232;32;20174;-68
2021/04/19 01:40:37;;;;;;;40.60;23.13;;;;;;;;;;4360538;32;20186;-69
2021/04/19 01:43:03;;;;;;;47.30;23.87;;;;;;;;;;4361266;32;20205;-69
2021/04/19 01:45:28;;;;;;;42.33;23.43;;;;;;;;;;4359995;32;20174;-69
2021/04/19 01:47:54;;;;;;;41.83;23.17;;;;;;;;;;4360974;32;20147;-69
2021/04/19 01:50:20;;;;;;;52.57;25.43;;;;;;;;;;4360164;32;20189;-69
2021/04/19 01:52:46;;;;;;;46.40;24.43;;;;;;;;;;4360358;32;20202;-69
2021/04/19 01:55:13;;;;;;;47.57;23.30;;;;;;;;;;4360375;32;20139;-69
2021/04/19 01:57:39;;;;;;;48.50;25.97;;;;;;;;;;4360584;32;20132;-68
2021/04/19 02:00:05;;;;;;;48.77;26.67;;;;;;;;;;4360367;32;20165;-69
2021/04/19 02:02:32;;;;;;;52.17;26.23;;;;;;;;;;4371618;32;20168;-69
2021/04/19 02:05:17;;;;;;;47.10;25.60;;;;;;;;;;4360184;32;20151;-68
2021/04/19 02:07:48;;;;;;;46.07;24.93;;;;;;;;;;4360435;32;20167;-68
2021/04/19 02:10:27;;;;;;;43.70;26.10;;;;;;;;;;4360213;32;20138;-68
2021/04/19 02:12:55;;;;;;;45.80;24.80;;;;;;;;;;4359949;32;20166;-69
2021/04/19 02:15:25;;;;;;;47.60;25.73;;;;;;;;;;4360328;33;20139;-69
2021/04/19 02:18:02;;;;;;;51.90;27.70;;;;;;;;;;4360644;32;20549;-68
2021/04/19 02:20:35;;;;;;;45.37;26.37;;;;;;;;;;4360173;32;20248;-68
2021/04/19 02:23:02;;;;;;;50.13;27.77;;;;;;;;;;4358919;33;20171;-68
2021/04/19 02:25:53;;;;;;;56.67;29.27;;;;;;;;;;4360097;32;20147;-68
2021/04/19 02:28:24;;;;;;;52.17;28.30;;;;;;;;;;4356037;33;20163;-68
2021/04/19 02:30:51;;;;;;;48.20;27.90;;;;;;;;;;4359810;32;20201;-68
2021/04/19 02:33:17;;;;;;;52.10;28.43;;;;;;;;;;4360427;32;20197;-68
2021/04/19 02:35:44;;;;;;;54.63;27.57;;;;;;;;;;4360281;32;20135;-68
2021/04/19 02:38:10;;;;;;;61.43;30.37;;;;;;;;;;4358980;33;20163;-70
2021/04/19 02:40:36;;;;;;;59.37;30.73;;;;;;;;;;4359731;32;20177;-71
2021/04/19 02:43:02;;;;;;;56.73;29.83;;;;;;;;;;4359350;32;20502;-69
2021/04/19 02:45:28;;;;;;;51.93;29.30;;;;;;;;;;4359760;32;20201;-70
2021/04/19 02:47:53;;;;;;;61.87;31.77;;;;;;;;;;4360067;32;20217;-68
2021/04/19 02:50:21;;;;;;;63.40;31.90;;;;;;;;;;4359392;32;20220;-69
2021/04/19 02:52:46;;;;;;;64.10;32.67;;;;;;;;;;4359988;32;20147;-69
2021/04/19 02:55:12;;;;;;;61.40;32.17;;;;;;;;;;4360167;32;20162;-69
2021/04/19 02:57:42;;;;;;;67.43;34.37;;;;;;;;;;4358946;33;20171;-69
2021/04/19 03:00:08;;;;;;;57.60;31.00;;;;;;;;;;4359548;32;20170;-70
2021/04/19 03:02:35;;;;;;;63.57;33.33;;;;;;;;;;4360610;32;20495;-70
2021/04/19 03:05:01;;;;;;;85.13;39.13;;;;;;;;;;4359659;32;20169;-70
2021/04/19 03:07:28;;;;;;;63.97;34.70;;;;;;;;;;4359653;32;20159;-70
2021/04/19 03:09:56;;;;;;;65.40;35.30;;;;;;;;;;4358394;33;20189;-69
2021/04/19 03:12:24;;;;;;;67.60;36.33;;;;;;;;;;4359421;32;20161;-69
2021/04/19 03:15:10;;;;;;;63.40;34.20;;;;;;;;;;4359968;33;20467;-69
2021/04/19 03:17:36;;;;;;;71.77;35.00;;;;;;;;;;4360037;32;20170;-69
2021/04/19 03:20:06;;;;;;;90.70;42.20;;;;;;;;;;4359496;32;20139;-68
2021/04/19 03:22:34;;;;;;;63.80;35.40;;;;;;;;;;4359892;32;20213;-69
2021/04/19 03:25:00;;;;;;;72.97;36.87;;;;;;;;;;4347638;32;20199;-69
2021/04/19 03:27:26;;;;;;;69.03;37.30;;;;;;;;;;4350305;33;20143;-69
2021/04/19 03:29:51;;;;;;;67.60;35.73;;;;;;;;;;4362168;32;20244;-69
2021/04/19 03:32:18;;;;;;;73.47;35.43;;;;;;;;;;4362482;32;20167;-69
2021/04/19 03:34:44;;;;;;;68.07;35.63;;;;;;;;;;4362236;32;20166;-69
2021/04/19 03:37:17;;;;;;;87.57;39.57;;;;;;;;;;4362767;32;20155;-69
2021/04/19 03:39:45;;;;;;;70.13;35.53;;;;;;;;;;4361610;32;20216;-68
2021/04/19 03:42:11;;;;;;;70.07;35.60;;;;;;;;;;4362290;32;20143;-69
2021/04/19 03:44:38;;;;;;;76.90;36.97;;;;;;;;;;4361870;32;20226;-69
2021/04/19 03:47:04;;;;;;;73.27;35.63;;;;;;;;;;4361642;32;20178;-69
2021/04/19 03:49:30;;;;;;;75.83;35.43;;;;;;;;;;4362301;32;20143;-68
2021/04/19 03:51:57;;;;;;;75.60;38.10;;;;;;;;;;4361190;32;20167;-69
2021/04/19 03:54:27;;;;;;;74.93;38.00;;;;;;;;;;4362466;32;20147;-68
2021/04/19 03:56:52;;;;;;;95.93;41.20;;;;;;;;;;4362564;32;20139;-69
2021/04/19 03:59:19;;;;;;;85.70;37.43;;;;;;;;;;4361720;32;20176;-68
2021/04/19 04:01:45;;;;;;;71.70;36.37;;;;;;;;;;4362522;32;20143;-67
2021/04/19 04:04:11;;;;;;;76.17;37.27;;;;;;;;;;4361986;32;20156;-69
2021/04/19 04:06:37;;;;;;;80.53;35.97;;;;;;;;;;4361387;32;20229;-70
2021/04/19 04:09:03;;;;;;;72.50;35.80;;;;;;;;;;4360437;32;20193;-69
2021/04/19 04:11:28;;;;;;;74.67;35.37;;;;;;;;;;4361793;32;20182;-69
2021/04/19 04:13:54;;;;;;;77.07;35.57;;;;;;;;;;4361309;32;20215;-69
2021/04/19 04:16:19;;;;;;;84.70;38.67;;;;;;;;;;4362183;32;20147;-69
2021/04/19 04:18:44;;;;;;;72.63;34.77;;;;;;;;;;4360705;33;20483;-68
2021/04/19 04:21:10;;;;;;;84.77;37.70;;;;;;;;;;4361711;32;20554;-69
2021/04/19 04:23:36;;;;;;;69.50;35.20;;;;;;;;;;4361151;32;20201;-70
2021/04/19 04:26:02;;;;;;;77.53;36.33;;;;;;;;;;4360790;32;20205;-68
2021/04/19 04:28:27;;;;;;;75.33;36.53;;;;;;;;;;4361828;32;20182;-69
2021/04/19 04:30:52;;;;;;;75.37;36.40;;;;;;;;;;4361677;32;20460;-68
2021/04/19 04:33:18;;;;;;;78.33;35.47;;;;;;;;;;4360548;32;20166;-70
2021/04/19 04:35:43;;;;;;;71.17;35.10;;;;;;;;;;4360845;32;20139;-68
2021/04/19 04:38:08;;;;;;;81.13;36.70;;;;;;;;;;4361455;32;20197;-68
2021/04/19 04:40:34;;;;;;;88.40;36.87;;;;;;;;;;4361308;32;20182;-68
2021/04/19 04:43:07;;;;;;;70.33;32.80;;;;;;;;;;4360356;32;20510;-68
2021/04/19 04:45:33;;;;;;;85.13;36.33;;;;;;;;;;4361295;32;20186;-69
2021/04/19 04:47:59;;;;;;;85.73;36.13;;;;;;;;;;4361161;32;20162;-70
2021/04/19 04:50:29;;;;;;;83.50;36.73;;;;;;;;;;4360966;32;20170;-68
2021/04/19 04:52:57;;;;;;;86.93;36.23;;;;;;;;;;4361024;32;20148;-68
2021/04/19 04:55:23;;;;;;;72.53;34.30;;;;;;;;;;4359542;32;20182;-69
2021/04/19 04:57:48;;;;;;;82.27;35.47;;;;;;;;;;4361150;32;20506;-70
2021/04/19 05:00:15;;;;;;;84.60;34.77;;;;;;;;;;4361663;32;20151;-69
2021/04/19 05:02:41;;;;;;;98.17;37.77;;;;;;;;;;4372726;32;20183;-68
2021/04/19 05:05:06;;;;;;;73.07;33.13;;;;;;;;;;4358280;32;20171;-68
2021/04/19 05:07:32;;;;;;;72.27;33.77;;;;;;;;;;4360561;32;20181;-68
2021/04/19 05:09:57;;;;;;;74.43;33.73;;;;;;;;;;4359508;32;20174;-69
2021/04/19 05:12:22;;;;;;;71.63;34.33;;;;;;;;;;4361080;32;20135;-70
2021/04/19 05:14:58;;;;;;;71.20;33.37;;;;;;;;;;4362277;32;20246;-67
2021/04/19 05:17:23;;;;;;;71.67;32.10;;;;;;;;;;4357903;32;20548;-70
2021/04/19 05:19:48;;;;;;;74.00;34.90;;;;;;;;;;4346869;32;20171;-70
2021/04/19 05:22:13;;;;;;;71.20;33.43;;;;;;;;;;4355928;33;20154;-65
2021/04/19 05:24:39;;;;;;;80.47;34.47;;;;;;;;;;4360496;32;20204;-70
2021/04/19 05:27:04;;;;;;;67.83;31.90;;;;;;;;;;4360426;32;20536;-69
2021/04/19 05:29:30;;;;;;;71.77;33.63;;;;;;;;;;4360800;32;20488;-67
2021/04/19 05:31:56;;;;;;;70.87;31.50;;;;;;;;;;4360026;32;20174;-71
2021/04/19 05:34:21;;;;;;;78.40;35.57;;;;;;;;;;4360508;32;20143;-70
2021/04/19 05:36:46;;;;;;;71.33;32.73;;;;;;;;;;4359801;32;20186;-69
2021/04/19 05:39:12;;;;;;;67.80;31.90;;;;;;;;;;4360161;32;20154;-70
2021/04/19 05:41:38;;;;;;;77.60;32.03;;;;;;;;;;4358936;32;20193;-67
2021/04/19 05:44:03;;;;;;;64.90;31.00;;;;;;;;;;4359757;32;20207;-65
2021/04/19 05:46:29;;;;;;;85.87;36.10;;;;;;;;;;4352216;32;20210;-65
2021/04/19 05:48:54;;;;;;;74.07;32.23;;;;;;;;;;4349656;33;20503;-72
2021/04/19 05:51:31;;;;;;;68.83;31.73;;;;;;;;;;4363582;32;20171;-69
2021/04/19 05:53:59;;;;;;;88.13;35.17;;;;;;;;;;4321125;32;20769;-72
2021/04/19 05:56:32;;;;;;;84.57;36.07;;;;;;;;;;4299562;33;20266;-71
2021/04/19 05:59:18;;;;;;;66.97;30.80;;;;;;;;;;4308603;32;20218;-70
2021/04/19 06:01:44;;;;;;;68.93;31.97;;;;;;;;;;4307357;33;20174;-70
2021/04/19 06:04:11;;;;;;;83.60;36.53;;;;;;;;;;4308326;32;20173;-70
2021/04/19 06:06:41;;;;;;;63.13;29.83;;;;;;;;;;4318507;32;20233;-70
2021/04/19 06:09:25;;;;;;;61.07;29.37;;;;;;;;;;4308381;32;20206;-72
2021/04/19 06:11:57;;;;;;;70.73;32.17;;;;;;;;;;4311269;32;20175;-71
2021/04/19 06:14:28;;;;;;;77.03;31.47;;;;;;;;;;4310642;32;21043;-69
2021/04/19 06:16:53;;;;;;;75.40;32.40;;;;;;;;;;4316422;32;20992;-71
2021/04/19 06:19:20;;;;;;;65.13;30.53;;;;;;;;;;4350667;33;20155;-70
2021/04/19 06:21:46;;;;;;;73.97;32.00;;;;;;;;;;4355928;32;20603;-67
2021/04/19 06:24:11;;;;;;;74.20;31.37;;;;;;;;;;4338936;32;20148;-68
2021/04/19 06:26:37;;;;;;;66.87;29.83;;;;;;;;;;4299626;33;21348;-71
2021/04/19 06:29:03;;;;;;;62.93;28.33;;;;;;;;;;4301338;33;20171;-70
2021/04/19 06:31:28;;;;;;;59.97;29.87;;;;;;;;;;4305906;32;20561;-71
2021/04/19 06:34:04;;;;;;;65.10;28.93;;;;;;;;;;4306357;32;20225;-66
2021/04/19 06:36:30;;;;;;;58.37;28.77;;;;;;;;;;4332958;33;20166;-69
2021/04/19 06:38:55;;;;;;;53.07;27.43;;;;;;;;;;4359005;32;20209;-65
2021/04/19 06:41:20;;;;;;;64.80;29.50;;;;;;;;;;4359385;32;20173;-68
2021/04/19 06:43:46;;;;;;;50.37;25.00;;;;;;;;;;4358018;33;20182;-68
2021/04/19 06:46:11;;;;;;;52.93;27.40;;;;;;;;;;4359188;32;20648;-69
2021/04/19 06:48:36;;;;;;;57.77;25.63;;;;;;;;;;4359341;33;20221;-65
2021/04/19 06:51:02;;;;;;;52.60;26.17;;;;;;;;;;4358444;32;20217;-68
2021/04/19 06:53:27;;;;;;;49.50;25.03;;;;;;;;;;4358401;32;20591;-68
2021/04/19 06:55:52;;;;;;;47.90;24.20;;;;;;;;;;4351980;33;20171;-68
2021/04/19 06:58:18;;;;;;;48.63;22.70;;;;;;;;;;4359537;32;20238;-68
2021/04/19 07:00:44;;;;;;;42.67;22.67;;;;;;;;;;4371595;32;20242;-68
2021/04/19 07:03:13;;;;;;;47.23;22.93;;;;;;;;;;4361148;32;20151;-66
2021/04/19 07:05:38;;;;;;;47.60;22.43;;;;;;;;;;4361112;32;20158;-65
2021/04/19 07:08:06;;;;;;;43.97;22.30;;;;;;;;;;4358652;32;20205;-69
2021/04/19 07:10:35;;;;;;;42.77;20.80;;;;;;;;;;4361453;32;20581;-67
2021/04/19 07:13:07;;;;;;;39.67;22.00;;;;;;;;;;4352796;33;20209;-69
2021/04/19 07:15:32;;;;;;;36.13;20.53;;;;;;;;;;4359735;32;20570;-67
2021/04/19 07:17:58;;;;;;;42.17;21.53;;;;;;;;;;4360768;32;20193;-71
2021/04/19 07:20:26;;;;;;;39.77;21.50;;;;;;;;;;4360730;32;20147;-69
2021/04/19 07:22:52;;;;;;;44.37;21.40;;;;;;;;;;4359541;32;20178;-66
2021/04/19 07:25:26;;;;;;;38.20;20.40;;;;;;;;;;4360777;32;20602;-69
2021/04/19 07:27:52;;;;;;;39.00;20.03;;;;;;;;;;4357513;32;20166;-69
2021/04/19 07:30:18;;;;;;;41.73;19.87;;;;;;;;;;4353412;32;20214;-68
2021/04/19 07:32:53;;;;;;;32.30;18.27;;;;;;;;;;4344163;33;20565;-69
2021/04/19 07:35:31;;;;;;;36.37;19.77;;;;;;;;;;4349701;32;20197;-69
2021/04/19 07:38:01;;;;;;;33.30;19.03;;;;;;;;;;4359794;32;20191;-66
2021/04/19 07:40:29;;;;;;;34.37;18.67;;;;;;;;;;4359790;32;20155;-69
2021/04/19 07:43:13;;;;;;;42.37;23.13;;;;;;;;;;4359358;32;20171;-70
2021/04/19 07:45:39;;;;;;;37.43;21.23;;;;;;;;;;4356520;32;20231;-71
2021/04/19 07:48:05;;;;;;;44.97;24.23;;;;;;;;;;4359591;32;20273;-64
2021/04/19 07:50:30;;;;;;;41.73;22.60;;;;;;;;;;4359973;32;20576;-69
2021/04/19 07:52:56;;;;;;;46.77;24.23;;;;;;;;;;4353740;33;20569;-70
2021/04/19 07:55:23;;;;;;;42.73;22.83;;;;;;;;;;4360394;32;20147;-67
2021/04/19 07:57:49;;;;;;;44.17;22.77;;;;;;;;;;4350901;32;20177;-68
2021/04/19 08:00:32;;;;;;;43.13;21.13;;;;;;;;;;4358487;32;20197;-69
2021/04/19 08:03:08;;;;;;;42.33;22.30;;;;;;;;;;4345490;32;20220;-69
2021/04/19 08:05:47;;;;;;;40.13;23.63;;;;;;;;;;4350902;33;20151;-66
2021/04/19 08:08:12;;;;;;;38.57;21.43;;;;;;;;;;4359560;32;20194;-70
2021/04/19 08:10:38;;;;;;;36.67;19.50;;;;;;;;;;4359970;32;20620;-67
2021/04/19 08:13:05;;;;;;;33.47;19.37;;;;;;;;;;4359725;32;20202;-70
2021/04/19 08:15:36;;;;;;;41.83;21.80;;;;;;;;;;4355372;32;20159;-70
2021/04/19 08:18:06;;;;;;;34.83;20.67;;;;;;;;;;4345381;32;20147;-67
2021/04/19 08:20:32;;;;;;;33.15;19.30;;;;;;;;;;4355616;32;20163;-69
2021/04/19 08:23:07;;;;;;;36.75;21.75;;;;;;;;;;4359745;32;20178;-69
2021/04/19 08:25:35;;;;;;;36.10;21.27;;;;;;;;;;4356135;32;20801;-67
2021/04/19 08:28:02;;;;;;;34.10;21.55;;;;;;;;;;4345507;33;20194;-69
2021/04/19 08:30:28;;;;;;;32.65;20.20;;;;;;;;;;4344985;32;20191;-67
2021/04/19 08:32:55;;;;;;;29.75;19.42;;;;;;;;;;4357862;32;20190;-69
2021/04/19 08:35:20;;;;;;;36.95;22.25;;;;;;;;;;4359796;32;20568;-68
2021/04/19 08:37:45;;;;;;;34.88;21.37;;;;;;;;;;4349383;32;20159;-69
2021/04/19 08:40:13;;;;;;;43.20;21.95;;;;;;;;;;4353800;33;20221;-67
2021/04/19 08:42:38;;;;;;;37.03;23.95;;;;;;;;;;4359609;32;20484;-67
2021/04/19 08:45:06;;;;;;;35.00;20.98;;;;;;;;;;4357104;32;20181;-68
2021/04/19 08:47:33;;;;;;;37.00;22.08;;;;;;;;;;4358261;32;20674;-68
2021/04/19 08:50:01;;;;;;;34.92;21.73;;;;;;;;;;4359725;32;20174;-66
2021/04/19 08:52:27;;;;;;;33.92;21.17;;;;;;;;;;4359034;32;20229;-65
2021/04/19 08:54:55;;;;;;;32.60;20.25;;;;;;;;;;4359650;32;20162;-65
2021/04/19 08:57:20;;;;;;;35.38;20.60;;;;;;;;;;4357798;32;20194;-69
2021/04/19 08:59:47;;;;;;;37.85;22.60;;;;;;;;;;4359006;32;20206;-66
2021/04/19 09:02:14;;;;;;;32.30;20.95;;;;;;;;;;4354192;32;20589;-68
2021/04/19 09:04:39;;;;;;;32.50;21.90;;;;;;;;;;4358824;32;20225;-68
2021/04/19 09:07:04;;;;;;;32.75;20.33;;;;;;;;;;4358985;32;20700;-68
2021/04/19 09:09:39;;;;;;;30.08;19.48;;;;;;;;;;4359441;32;20448;-69
2021/04/19 09:12:10;;;;;;;34.08;21.62;;;;;;;;;;4358887;32;20143;-68
2021/04/19 09:14:39;;;;;;;36.33;22.48;;;;;;;;;;4359523;32;20138;-69
2021/04/19 09:17:05;;;;;;;34.72;21.55;;;;;;;;;;4359349;32;20135;-69
2021/04/19 09:19:31;;;;;;;30.73;18.98;;;;;;;;;;4359193;32;20143;-69
2021/04/19 09:22:08;;;;;;;34.15;20.25;;;;;;;;;;4359245;32;20616;-69
2021/04/19 09:24:53;;;;;;;31.42;19.48;;;;;;;;;;4358987;32;20521;-68
2021/04/19 09:27:37;;;;;;;35.65;21.00;;;;;;;;;;4358189;32;20163;-68
2021/04/19 09:30:26;;;;;;;31.58;20.33;;;;;;;;;;4357333;32;20963;-69
2021/04/19 09:33:06;;;;;;;28.83;18.40;;;;;;;;;;4352512;32;20159;-70
2021/04/19 09:35:52;;;;;;;39.15;21.40;;;;;;;;;;4352933;32;20217;-68
2021/04/19 09:38:37;;;;;;;32.08;20.42;;;;;;;;;;4343405;32;20249;-67
2021/04/19 09:41:04;;;;;;;28.50;19.85;;;;;;;;;;4343644;32;20203;-66
2021/04/19 09:43:30;;;;;;;32.65;20.30;;;;;;;;;;4349755;32;20171;-69
2021/04/19 09:46:20;;;;;;;29.92;20.25;;;;;;;;;;4359014;32;20454;-66
2021/04/19 09:48:46;;;;;;;40.78;22.65;;;;;;;;;;4357768;32;20167;-69
2021/04/19 09:51:13;;;;;;;34.42;21.67;;;;;;;;;;4357930;32;20155;-70
2021/04/19 09:53:39;;;;;;;31.02;20.10;;;;;;;;;;4358490;32;20147;-67
2021/04/19 09:56:04;;;;;;;47.15;21.83;;;;;;;;;;4354687;32;20217;-69
2021/04/19 09:58:30;;;;;;;29.37;20.00;;;;;;;;;;4352581;32;20147;-66
2021/04/19 10:00:59;;;;;;;29.02;20.30;;;;;;;;;;4358338;32;20227;-66
2021/04/19 10:03:25;;;;;;;25.67;19.23;;;;;;;;;;4358763;32;20298;-67
2021/04/19 10:05:51;;;;;;;31.02;19.62;;;;;;;;;;4353853;32;20197;-63
2021/04/19 10:08:17;;;;;;;38.28;22.55;;;;;;;;;;4351273;32;20228;-67
2021/04/19 10:10:43;;;;;;;33.10;21.73;;;;;;;;;;4352145;32;20217;-68
2021/04/19 10:13:08;;;;;;;31.12;20.50;;;;;;;;;;4358893;32;20665;-66
2021/04/19 10:15:33;;;;;;;33.00;19.02;;;;;;;;;;4351761;32;20202;-68
2021/04/19 10:18:11;;;;;;;24.87;18.02;;;;;;;;;;4342043;33;20168;-66
2021/04/19 10:20:37;;;;;;;28.10;20.08;;;;;;;;;;4354203;33;20384;-68
2021/04/19 10:23:06;;;;;;;28.15;16.45;;;;;;;;;;4343472;33;20179;-70
2021/04/19 10:25:32;;;;;;;22.92;16.65;;;;;;;;;;4345876;33;20163;-68
2021/04/19 10:27:58;;;;;;;33.28;18.08;;;;;;;;;;4346918;33;20214;-69
2021/04/19 10:30:23;;;;;;;24.90;16.85;;;;;;;;;;4359131;32;20151;-69
2021/04/19 10:32:49;;;;;;;24.10;17.08;;;;;;;;;;4360327;32;20135;-68
2021/04/19 10:35:34;;;;;;;26.05;17.70;;;;;;;;;;4360997;32;20571;-68
2021/04/19 10:37:59;;;;;;;27.23;18.25;;;;;;;;;;4360616;32;20151;-69
2021/04/19 10:40:25;;;;;;;25.17;18.15;;;;;;;;;;4346432;32;20628;-70
2021/04/19 10:42:50;;;;;;;27.42;17.92;;;;;;;;;;4347032;33;20195;-67
2021/04/19 10:45:16;;;;;;;25.15;17.62;;;;;;;;;;4346567;32;20445;-68
2021/04/19 10:47:41;;;;;;;28.02;17.23;;;;;;;;;;4346702;32;20278;-64
2021/04/19 10:50:07;;;;;;;25.35;17.30;;;;;;;;;;4357452;32;20240;-69
2021/04/19 10:52:32;;;;;;;27.45;17.20;;;;;;;;;;4360596;32;20167;-69
2021/04/19 10:55:03;;;;;;;22.15;15.50;;;;;;;;;;4362367;32;20607;-65
2021/04/19 10:57:29;;;;;;;24.35;16.62;;;;;;;;;;4357628;32;20151;-68
2021/04/19 10:59:55;;;;;;;24.55;18.05;;;;;;;;;;4351950;32;20221;-66
2021/04/19 11:02:24;;;;;;;23.27;15.43;;;;;;;;;;4359294;32;20975;-69
2021/04/19 11:04:49;;;;;;;21.40;15.00;;;;;;;;;;4360855;32;20159;-69
2021/04/19 11:07:21;;;;;;;20.42;15.10;;;;;;;;;;4359570;32;20163;-70
2021/04/19 11:09:46;;;;;;;19.62;14.87;;;;;;;;;;4347586;32;20181;-66
2021/04/19 11:12:11;;;;;;;34.50;16.10;;;;;;;;;;4359144;32;20151;-67
2021/04/19 11:14:36;;;;;;;20.37;15.02;;;;;;;;;;4360479;32;20530;-67
2021/04/19 11:17:05;;;;;;;20.92;15.88;;;;;;;;;;4358382;32;20538;-66
2021/04/19 11:19:37;;;;;;;19.10;14.05;;;;;;;;;;4361421;32;20147;-81
2021/04/19 11:22:21;;;;;;;17.20;13.85;;;;;;;;;;4362013;32;20151;-79
2021/04/19 11:24:46;;;;;;;19.42;12.35;;;;;;;;;;4361006;32;20213;-79
2021/04/19 11:27:12;;;;;;;12.57;10.82;;;;;;;;;;4360729;32;20572;-77
2021/04/19 11:29:41;;;;;;;16.73;11.40;;;;;;;;;;4360079;32;20214;-74
2021/04/19 11:32:07;;;;;;;13.45;9.50;;;;;;;;;;4371932;32;20163;-80
2021/04/19 11:34:39;;;;;;;11.88;8.75;;;;;;;;;;4357663;32;20249;-80
2021/04/19 11:37:04;;;;;;;14.87;9.15;;;;;;;;;;4358101;32;20649;-79
2021/04/19 11:39:38;;;;;;;12.77;9.50;;;;;;;;;;4356987;32;20155;-80
2021/04/19 11:42:03;;;;;;;14.90;9.80;;;;;;;;;;4358681;32;20162;-80
2021/04/19 11:44:44;;;;;;;10.98;9.05;;;;;;;;;;4358028;32;20143;-79
2021/04/19 11:47:14;;;;;;;10.07;8.38;;;;;;;;;;4360748;32;20225;-79
2021/04/19 11:49:40;;;;;;;10.75;8.98;;;;;;;;;;4360933;32;20147;-81
2021/04/19 11:52:05;;;;;;;11.55;7.68;;;;;;;;;;4359006;32;20189;-79
2021/04/19 11:54:30;;;;;;;9.45;7.30;;;;;;;;;;4358267;32;20692;-79
2021/04/19 11:56:58;;;;;;;8.27;7.37;;;;;;;;;;4356137;32;20148;-77
2021/04/19 11:59:26;;;;;;;10.35;7.60;;;;;;;;;;4351990;32;20615;-79
2021/04/19 12:01:52;;;;;;;8.90;6.75;;;;;;;;;;4357603;32;20250;-78
2021/04/19 12:04:17;;;;;;;9.88;7.97;;;;;;;;;;4357896;32;20631;-75
2021/04/19 12:06:42;;;;;;;9.10;7.57;;;;;;;;;;4357639;33;20175;-80
2021/04/19 12:09:07;;;;;;;8.30;7.25;;;;;;;;;;4357901;32;20272;-77
2021/04/19 12:11:33;;;;;;;11.90;8.00;;;;;;;;;;4358914;32;20205;-80
2021/04/19 12:14:00;;;;;;;11.85;8.65;;;;;;;;;;4345046;33;20159;-76
2021/04/19 12:16:25;;;;;;;9.43;7.93;;;;;;;;;;4345336;33;20167;-77
2021/04/19 12:18:50;;;;;;;9.27;7.50;;;;;;;;;;4349013;33;20163;-78
2021/04/19 12:21:15;;;;;;;9.23;6.60;;;;;;;;;;4348732;33;20182;-80
2021/04/19 12:23:41;;;;;;;9.50;7.68;;;;;;;;;;4346132;33;20190;-76
2021/04/19 12:26:06;;;;;;;10.73;6.62;;;;;;;;;;4344786;33;20174;-78
2021/04/19 12:28:31;;;;;;;9.55;7.35;;;;;;;;;;4352023;33;20571;-77
2021/04/19 12:31:00;;;;;;;8.52;7.10;;;;;;;;;;4360350;32;20230;-80
2021/04/19 12:33:26;;;;;;;9.55;7.40;;;;;;;;;;4359390;32;20237;-79
2021/04/19 12:35:52;;;;;;;9.48;8.07;;;;;;;;;;4360069;32;20158;-78
2021/04/19 12:38:17;;;;;;;9.60;7.57;;;;;;;;;;4360243;32;20190;-76
2021/04/19 12:40:43;;;;;;;10.57;7.80;;;;;;;;;;4358524;32;20225;-77
2021/04/19 12:43:09;;;;;;;10.80;8.00;;;;;;;;;;4371324;32;20171;-79
2021/04/19 12:45:36;;;;;;;11.45;8.13;;;;;;;;;;4358914;32;20171;-76
2021/04/19 12:48:01;;;;;;;11.95;8.30;;;;;;;;;;4359975;32;20167;-79
2021/04/19 12:50:28;;;;;;;14.20;8.45;;;;;;;;;;4357479;32;20514;-79
2021/04/19 12:53:06;;;;;;;11.35;7.55;;;;;;;;;;4359303;32;20159;-78
2021/04/19 12:55:32;;;;;;;8.63;7.10;;;;;;;;;;4351012;32;20475;-79
2021/04/19 12:57:57;;;;;;;8.93;7.15;;;;;;;;;;4348967;32;20299;-77
2021/04/19 13:00:23;;;;;;;9.70;6.32;;;;;;;;;;4351638;32;20650;-80
2021/04/19 13:02:48;;;;;;;9.57;7.43;;;;;;;;;;4359636;32;20162;-75
2021/04/19 13:05:16;;;;;;;8.77;6.60;;;;;;;;;;4358986;32;20187;-76
2021/04/19 13:08:26;;;;;;;11.12;8.02;;;;;;;;;;4352441;32;20213;-79
2021/04/19 13:10:27;;;;;;;7.18;6.40;;;;;;;;;;4344868;33;20171;-78
2021/04/19 13:12:52;;;;;;;7.85;6.00;;;;;;;;;;4347631;32;20573;-79
2021/04/19 13:15:17;;;;;;;8.68;5.65;;;;;;;;;;4346064;32;20285;-76
2021/04/19 13:17:46;;;;;;;6.47;5.87;;;;;;;;;;4359343;32;20187;-77
2021/04/19 13:20:11;;;;;;;8.00;6.20;;;;;;;;;;4345633;32;20167;-77
2021/04/19 13:22:36;;;;;;;7.93;5.70;;;;;;;;;;4359078;32;20163;-77
2021/04/19 13:25:03;;;;;;;9.18;5.80;;;;;;;;;;4348208;32;20597;-78
2021/04/19 13:27:28;;;;;;;5.05;4.53;;;;;;;;;;4348497;32;20185;-80
2021/04/19 13:29:54;;;;;;;5.07;4.40;;;;;;;;;;4353029;32;20167;-80
2021/04/19 13:32:19;;;;;;;5.15;4.05;;;;;;;;;;4350287;33;20199;-76
2021/04/19 13:34:44;;;;;;;4.60;3.40;;;;;;;;;;4359317;32;20162;-77
2021/04/19 13:37:10;;;;;;;5.72;4.80;;;;;;;;;;4360361;32;20135;-80
2021/04/19 13:39:36;;;;;;;6.55;3.97;;;;;;;;;;4359696;32;20135;-79
2021/04/19 13:42:04;;;;;;;5.22;4.10;;;;;;;;;;4358966;32;20171;-78
2021/04/19 13:44:30;;;;;;;5.22;4.53;;;;;;;;;;4360381;32;20556;-79
2021/04/19 13:46:55;;;;;;;5.65;4.97;;;;;;;;;;4356262;32;20282;-80
2021/04/19 13:49:21;;;;;;;6.70;5.18;;;;;;;;;;4344983;33;20143;-78
2021/04/19 13:51:47;;;;;;;5.20;4.40;;;;;;;;;;4343179;33;20242;-79
2021/04/19 13:54:12;;;;;;;4.47;4.07;;;;;;;;;;4349986;33;20222;-78
2021/04/19 13:56:37;;;;;;;4.65;4.15;;;;;;;;;;4350007;33;20203;-81
2021/04/19 13:59:03;;;;;;;6.53;4.40;;;;;;;;;;4343261;33;20293;-81
2021/04/19 14:01:31;;;;;;;5.40;4.40;;;;;;;;;;4358220;33;20527;-79
2021/04/19 14:04:00;;;;;;;5.68;4.10;;;;;;;;;;4357979;32;20185;-81
2021/04/19 14:06:26;;;;;;;7.20;6.53;;;;;;;;;;4358669;32;20135;-79
2021/04/19 14:08:51;;;;;;;5.10;4.60;;;;;;;;;;4358396;32;20500;-79
2021/04/19 14:11:16;;;;;;;7.50;4.95;;;;;;;;;;4348762;32;20621;-79
2021/04/19 14:13:45;;;;;;;4.93;4.37;;;;;;;;;;4353039;32;20566;-78
2021/04/19 14:16:10;;;;;;;5.40;4.65;;;;;;;;;;4341704;32;20174;-78
2021/04/19 14:18:37;;;;;;;5.37;4.80;;;;;;;;;;4343360;33;20557;-76
2021/04/19 14:21:04;;;;;;;8.80;5.68;;;;;;;;;;4355159;33;20273;-79
2021/04/19 14:23:29;;;;;;;5.70;5.10;;;;;;;;;;4359830;32;20185;-80